Belt, Montana
Current Conditions -  °F | °C
As of 5:56 AM on Saturday 20 Dec 2014 (Local Time) from KGFA Reporting Station
Clear Clear  
Wind Chill: 23°   Ceiling: Unl
Heat Index: 34°   Visibility: 10mi
Dew Point: 23°   Wind: 18mph
Humidity: 65%   Direction: 230°SW
Pressure: 29.88"   Gusts: NA
Location:  47.39°N, 110.93°W
Report Text: KGFA 201256Z AUTO 23016KT 10SM CLR 01/M05 A2988 RMK AO2 SLP146 T00091050
Loading
Personal Weather Stations






























Interactive Weather Map New forecast layout! Learn more

10-Day Weather Forecast

Advertisements
Track Severe Weather on mobile